Warning: Javascript must be enabled to use all the features on this page!


Page Loading - Please Wait...

Click to hideNews Bulletins

Peak Streamflow for Nevada

Click to hide state-specific text


USGS 10320000 S FK HUMBOLDT RV ABV DIXIE CK NR ELKO, NV

Elko County, Nevada
Hydrologic Unit Code 16040103
Latitude  40°41'06", Longitude 115°48'45" NAD27
Drainage area 1,150  square miles
Gage datum 5,140.00 feet above NGVD29
Output formats
Table
Graph
Tab-separated file
peakfq (watstore) format
Reselect output format
Water
Year
Date Gage
Height
(feet)
Stream-
flow
(cfs)
1949 1949-05-17 4.56 8075
1950 1950-06-02 4.60 8355
1951 1951-05-28 5.12 1,2405
1952 1952-04-29 5.46 1,7005
1953 1953-06-19 4.45 7315
1954 1954-05-21 3.73 3435
1955 1955-06-11 4.32 6765
1956 1956-05-25 5.26 1,3605
1957 1957-06-06 5.58 1,7005
1958 1958-05-25 4.98 1,1605
1959 1959-06-07 3.43 2165
1960 1960-06-04 4.11 4995
1961 1961-05-30 4.35 6635
1962 1962-02-11 7.20 2,7605
1963 1963-06-05 4.74 1,1005
1964 1964-06-17 4.77 1,0905
1965 1965-06-08 4.70 1,0205
1966 1966-03-14 3.682 3895
1967 1967-06-21 4.59 9545
1968 1968-06-06 4.42 8305
1969 1969-05-14 4.30 7385
1970 1970-06-09 4.62 9885
1971 1971-06-11 5.07 1,4005
1972 1972-06-09 4.37 7805
1973 1973-05-20 4.90 1,3305
1974 1974-05-29 3.98 5705
1975 1975-06-08 5.152 1,5605
1976 1976-05-19 3.822 4665
1977 1977-06-08 4.26 7825
1978 1978-06-11 4.31 8235
1979 1979-01-12 6.80 3,1005
1980 1980-06-03 4.98 1,4605
1981 1981-06-03 3.66 3875
1982 1982-09-26 4.31 8065
1989 1989-05-11 3.77 4846
1990 1990-06-10 4.03 6696
1991 1991-06-16 4.13 7826
1992 1992-05-11 3.31 2386
1993 1993-05-18 4.20 7796
1994 1994-05-18 4.02 5876
1995 1995-06-06 5.14 1,6006
1996 1996-05-17 4.69 1,2106
1997 1997-06-12 4.76 1,2806
1998 1998-06-16 4.83 1,2906
1999 1999-06-04 4.41 9686
2000 2000-05-29 4.14 7606
2001 2001-05-16 3.92 5956
2002 2002-06-09 3.97 6356
2003 2003-05-30 4.39 9216
2004 2004-05-10 3.51 3316
2005 2005-05-29 5.59 2,2606
2006 2006-05-17 5.27 1,7106
2007 2007-05-21 3.83 5316
2008 2008-05-19 3.96 6096
2009 2009-06-20 4.61 1,1106
2010 2010-06-07 5.48 1,9306
2011 2011-06-17 5.25 1,7006
2012 2012-05-17 3.16 1876
2013 2013-05-17 3.21 2006
2014 2014-06-01 3.952 5426
2015 2015-06-11 3.99 5616
2016 2016-06-09 4.58 1,0706
2017 2017-05-13 4.79 1,2506
2018 2018-05-31 3.62 3856
2019 2019-06-08 5.27 1,6002,6
2020 2020-06-04 3.36 2646
2021 2021-06-05 3.87 5016
?
  Peak Gage-Height Qualification Codes.
?
  Peak Streamflow Qualification Codes.